^^
Saratoga-Weather Station Historical Data
Daily Summary for June 22, 2020 Units:  Metric    English   Both
Daily Weekly Monthly Yearly Custom
  High: Low: Average:
Temperature: 27.1 °C 9.6 °C 18.1 °C
Dew Point: 15.4 °C 7.1 °C 9.4 °C
Humidity: 90% 32% 61%
Wind Speed: 14.3km/h 0km/h 1.9km/h
Wind Gust: 16.1km/h - -
Wind- - SW
Pressure: 1012.5 hPa 1006.4 hPa -
Precipitation: 0.0 mm    
Historical Graphs
 
 
Tabular Data for June 22, 2020
Time Temperature Dew Point Pressure Wind Wind Speed Wind Gust Humidity Rainfall Rate (Hourly) solar
00:00 14.2 °C 9 °C 1012.5 hPa Calm     71% 0.0 mm 0 W/m2
00:05 14.1 °C 8.9 °C 1012.5 hPa Calm     71% 0.0 mm 0 W/m2
00:10 14.1 °C 8.9 °C 1012.5 hPa Calm     71% 0.0 mm 0 W/m2
00:15 13.9 °C 8.9 °C 1012.2 hPa Calm     72% 0.0 mm 0 W/m2
00:20 13.8 °C 8.8 °C 1012.5 hPa Calm     72% 0.0 mm 0 W/m2
00:25 13.8 °C 8.8 °C 1012.2 hPa Calm   1.6 km/h 72% 0.0 mm 0 W/m2
00:30 13.7 °C 8.9 °C 1012.5 hPa Calm     73% 0.0 mm 0 W/m2
00:35 13.7 °C 8.9 °C 1012.5 hPa Calm     73% 0.0 mm 0 W/m2
00:40 13.7 °C 8.9 °C 1012.5 hPa Calm     73% 0.0 mm 0 W/m2
00:45 13.6 °C 8.9 °C 1012.5 hPa Calm   1.6 km/h 73% 0.0 mm 0 W/m2
00:50 13.6 °C 8.9 °C 1012.2 hPa Calm     73% 0.0 mm 0 W/m2
00:55 13.5 °C 9 °C 1012.2 hPa SSW 1.4 km/h 1.6 km/h 74% 0.0 mm 0 W/m2
01:00 13.5 °C 9 °C 1012.2 hPa Calm   1.6 km/h 74% 0.0 mm 0 W/m2
01:05 13.5 °C 9 °C 1012.2 hPa Calm   3.2 km/h 74% 0.0 mm 0 W/m2
01:10 13.4 °C 8.9 °C 1012.2 hPa Calm   1.6 km/h 74% 0.0 mm 0 W/m2
01:15 13.3 °C 8.8 °C 1012.2 hPa Calm   3.2 km/h 74% 0.0 mm 0 W/m2
01:20 13.2 °C 8.7 °C 1012.2 hPa Calm     74% 0.0 mm 0 W/m2
01:25 13.1 °C 8.8 °C 1012.2 hPa Calm     75% 0.0 mm 0 W/m2
01:30 12.9 °C 8.6 °C 1012.2 hPa Calm     75% 0.0 mm 0 W/m2
01:36 12.8 °C 8.7 °C 1012.2 hPa Calm     76% 0.0 mm 0 W/m2
01:41 12.7 °C 8.8 °C 1012.2 hPa Calm     77% 0.0 mm 0 W/m2
01:46 12.6 °C 8.9 °C 1012.2 hPa Calm     78% 0.0 mm 0 W/m2
01:51 12.6 °C 8.9 °C 1012.2 hPa SSW 1.4 km/h 1.6 km/h 78% 0.0 mm 0 W/m2
01:56 12.5 °C 8.8 °C 1011.9 hPa Calm     78% 0.0 mm 0 W/m2
02:01 12.5 °C 9 °C 1011.9 hPa Calm     79% 0.0 mm 0 W/m2
02:06 12.4 °C 8.9 °C 1011.9 hPa Calm     79% 0.0 mm 0 W/m2
02:11 12.4 °C 8.9 °C 1011.9 hPa Calm     79% 0.0 mm 0 W/m2
02:16 12.3 °C 8.9 °C 1012.2 hPa Calm     80% 0.0 mm 0 W/m2
02:21 12.3 °C 8.9 °C 1011.9 hPa Calm     80% 0.0 mm 0 W/m2
02:26 12.3 °C 8.9 °C 1011.9 hPa Calm     80% 0.0 mm 0 W/m2
02:31 12.3 °C 8.9 °C 1011.9 hPa Calm   1.6 km/h 80% 0.0 mm 0 W/m2
02:36 12.2 °C 8.9 °C 1011.9 hPa Calm   1.6 km/h 80% 0.0 mm 0 W/m2
02:41 12.2 °C 8.9 °C 1011.9 hPa Calm     80% 0.0 mm 0 W/m2
02:46 12.1 °C 8.8 °C 1011.9 hPa Calm     80% 0.0 mm 0 W/m2
02:51 12 °C 8.7 °C 1011.9 hPa Calm     80% 0.0 mm 0 W/m2
02:56 11.9 °C 8.7 °C 1011.9 hPa Calm     81% 0.0 mm 0 W/m2
03:01 11.8 °C 8.6 °C 1011.9 hPa Calm     81% 0.0 mm 0 W/m2
03:06 11.8 °C 8.6 °C 1011.9 hPa Calm     81% 0.0 mm 0 W/m2
03:11 11.7 °C 8.7 °C 1011.9 hPa Calm     82% 0.0 mm 0 W/m2
03:16 11.7 °C 8.7 °C 1011.9 hPa Calm     82% 0.0 mm 0 W/m2
03:21 11.7 °C 8.7 °C 1011.9 hPa Calm     82% 0.0 mm 0 W/m2
03:26 11.7 °C 8.7 °C 1011.9 hPa Calm     82% 0.0 mm 0 W/m2
03:31 11.7 °C 8.7 °C 1011.9 hPa Calm     82% 0.0 mm 0 W/m2
03:36 11.6 °C 8.6 °C 1011.9 hPa Calm   1.6 km/h 82% 0.0 mm 0 W/m2
03:41 11.5 °C 8.5 °C 1011.9 hPa Calm     82% 0.0 mm 0 W/m2
03:46 11.4 °C 8.4 °C 1011.9 hPa Calm   1.6 km/h 82% 0.0 mm 0 W/m2
03:51 11.3 °C 8.3 °C 1011.5 hPa Calm     82% 0.0 mm 0 W/m2
03:56 11.2 °C 8.4 °C 1011.5 hPa Calm     83% 0.0 mm 0 W/m2
04:01 11.2 °C 8.4 °C 1011.5 hPa Calm     83% 0.0 mm 0 W/m2
04:06 11.1 °C 8.3 °C 1011.5 hPa Calm     83% 0.0 mm 0 W/m2
04:11 11 °C 8.2 °C 1011.5 hPa Calm     83% 0.0 mm 0 W/m2
04:16 10.9 °C 8.3 °C 1011.5 hPa Calm     84% 0.0 mm 0 W/m2
04:21 10.8 °C 8.2 °C 1011.5 hPa Calm     84% 0.0 mm 0 W/m2
04:26 10.8 °C 8.2 °C 1011.5 hPa Calm   1.6 km/h 84% 0.0 mm 0 W/m2
04:31 10.8 °C 8.2 °C 1011.5 hPa West 1.4 km/h 1.6 km/h 84% 0.0 mm 0 W/m2
04:36 10.9 °C 8.3 °C 1011.5 hPa Calm   1.6 km/h 84% 0.0 mm 0 W/m2
04:41 11.1 °C 8.5 °C 1011.5 hPa Calm     84% 0.0 mm 0 W/m2
04:46 11.1 °C 8.3 °C 1011.5 hPa Calm     83% 0.0 mm 0 W/m2
04:51 11 °C 8.2 °C 1011.5 hPa Calm     83% 0.0 mm 0 W/m2
04:56 10.9 °C 8.3 °C 1011.5 hPa Calm     84% 0.0 mm 0 W/m2
05:01 10.8 °C 8.2 °C 1011.5 hPa Calm     84% 0.0 mm 0 W/m2
05:06 10.8 °C 8.2 °C 1011.2 hPa Calm     84% 0.0 mm 0 W/m2
05:11 10.7 °C 8.1 °C 1011.2 hPa Calm     84% 0.0 mm 0 W/m2
05:16 10.6 °C 8.2 °C 1011.2 hPa Calm     85% 0.0 mm 0 W/m2
05:21 10.5 °C 8.1 °C 1011.2 hPa Calm     85% 0.0 mm 0 W/m2
05:26 10.4 °C 8 °C 1011.2 hPa Calm     85% 0.0 mm 0 W/m2
05:31 10.3 °C 8.1 °C 1011.2 hPa Calm     86% 0.0 mm 0 W/m2
05:36 10.3 °C 8.1 °C 1011.2 hPa Calm     86% 0.0 mm 0 W/m2
05:41 10.2 °C 8 °C 1011.2 hPa Calm     86% 0.0 mm 0 W/m2
05:46 10.2 °C 8.1 °C 1011.2 hPa Calm     87% 0.0 mm 0 W/m2
05:51 10.2 °C 8.1 °C 1011.2 hPa Calm     87% 0.0 mm 0 W/m2
05:56 10.2 °C 8.1 °C 1011.2 hPa Calm     87% 0.0 mm 0 W/m2
06:01 10.2 °C 8.1 °C 1011.2 hPa Calm     87% 0.0 mm 0 W/m2
06:06 10.1 °C 8 °C 1011.2 hPa Calm     87% 0.0 mm 0 W/m2
06:11 10.1 °C 8 °C 1011.2 hPa Calm     87% 0.0 mm 0 W/m2
06:16 10 °C 8.1 °C 1011.2 hPa Calm     88% 0.0 mm 0 W/m2
06:21 9.9 °C 8 °C 1011.2 hPa Calm     88% 0.0 mm 0 W/m2
06:26 9.9 °C 8 °C 1011.2 hPa Calm     88% 0.0 mm 0 W/m2
06:31 9.9 °C 8 °C 1011.2 hPa Calm     88% 0.0 mm 0 W/m2
06:36 9.8 °C 7.9 °C 1011.2 hPa Calm     88% 0.0 mm 0 W/m2
06:41 9.8 °C 7.9 °C 1011.2 hPa Calm     88% 0.0 mm 0 W/m2
06:46 9.8 °C 8.1 °C 1010.8 hPa Calm     89% 0.0 mm 0 W/m2
06:51 9.7 °C 8 °C 1011.2 hPa Calm     89% 0.0 mm 0 W/m2
06:57 9.7 °C 8 °C 1011.2 hPa Calm     89% 0.0 mm 0 W/m2
07:02 9.6 °C 7.9 °C 1011.2 hPa Calm     89% 0.0 mm 0 W/m2
07:07 9.6 °C 7.9 °C 1011.2 hPa Calm     89% 0.0 mm 0 W/m2
07:12 9.7 °C 8.1 °C 1011.2 hPa Calm     90% 0.0 mm 0 W/m2
07:17 9.7 °C 8.1 °C 1011.2 hPa Calm     90% 0.0 mm 0 W/m2
07:22 9.7 °C 8.1 °C 1011.2 hPa Calm     90% 0.0 mm 0 W/m2
07:27 9.8 °C 8.1 °C 1011.2 hPa Calm     89% 0.0 mm 5 W/m2
07:32 9.7 °C 8 °C 1011.2 hPa Calm     89% 0.0 mm 7 W/m2
07:37 9.7 °C 8 °C 1011.2 hPa Calm     89% 0.0 mm 9 W/m2
07:42 9.7 °C 8 °C 1011.2 hPa Calm     89% 0.0 mm 11 W/m2
07:47 9.7 °C 8 °C 1011.2 hPa Calm     89% 0.0 mm 12 W/m2
07:52 9.6 °C 7.9 °C 1011.5 hPa Calm     89% 0.0 mm 14 W/m2
07:57 9.6 °C 7.9 °C 1011.5 hPa Calm     89% 0.0 mm 16 W/m2
08:02 9.6 °C 7.9 °C 1011.2 hPa Calm     89% 0.0 mm 18 W/m2
08:07 9.6 °C 8 °C 1011.5 hPa Calm     90% 0.0 mm 19 W/m2
08:12 9.7 °C 8.1 °C 1011.5 hPa Calm     90% 0.0 mm 21 W/m2
08:17 9.7 °C 8.1 °C 1011.5 hPa Calm     90% 0.0 mm 23 W/m2
08:22 9.8 °C 8.2 °C 1011.5 hPa Calm     90% 0.0 mm 25 W/m2
08:27 9.9 °C 8.3 °C 1011.5 hPa Calm     90% 0.0 mm 26 W/m2
08:32 10.1 °C 8.5 °C 1011.5 hPa Calm     90% 0.0 mm 28 W/m2
08:37 10.2 °C 8.5 °C 1011.5 hPa Calm     89% 0.0 mm 28 W/m2
08:42 10.3 °C 8.6 °C 1011.5 hPa Calm     89% 0.0 mm 30 W/m2
08:47 10.5 °C 8.8 °C 1011.5 hPa Calm     89% 0.0 mm 32 W/m2
08:52 10.7 °C 8.8 °C 1011.5 hPa Calm     88% 0.0 mm 35 W/m2
08:57 10.9 °C 9 °C 1011.5 hPa Calm     88% 0.0 mm 33 W/m2
09:02 11.1 °C 9 °C 1011.5 hPa Calm     87% 0.0 mm 35 W/m2
09:07 11.2 °C 9.1 °C 1011.5 hPa Calm     87% 0.0 mm 132 W/m2
09:12 11.4 °C 9.1 °C 1011.5 hPa Calm     86% 0.0 mm 46 W/m2
09:17 11.8 °C 9.4 °C 1011.5 hPa Calm     85% 0.0 mm 39 W/m2
09:22 12.2 °C 9.6 °C 1011.5 hPa West 1.4 km/h 1.6 km/h 84% 0.0 mm 40 W/m2
09:27 12.6 °C 9.8 °C 1011.5 hPa NW 1.4 km/h 3.2 km/h 83% 0.0 mm 40 W/m2
09:32 12.9 °C 9.7 °C 1011.5 hPa Calm     81% 0.0 mm 40 W/m2
09:37 13.2 °C 9.8 °C 1011.5 hPa Calm   1.6 km/h 80% 0.0 mm 40 W/m2
09:42 13.5 °C 9.9 °C 1011.5 hPa Calm   1.6 km/h 79% 0.0 mm 42 W/m2
09:47 13.9 °C 10.1 °C 1011.5 hPa Calm   1.6 km/h 78% 0.0 mm 42 W/m2
09:52 14.3 °C 10.3 °C 1011.5 hPa Calm   1.6 km/h 77% 0.0 mm 44 W/m2
09:57 14.7 °C 10.3 °C 1011.5 hPa Calm     75% 0.0 mm 44 W/m2
10:02 14.9 °C 10.7 °C 1011.5 hPa Calm     76% 0.0 mm 46 W/m2
10:07 15.4 °C 10.6 °C 1011.5 hPa Calm   3.2 km/h 73% 0.0 mm 47 W/m2
10:12 15.7 °C 10.7 °C 1011.5 hPa Calm   1.6 km/h 72% 0.0 mm 47 W/m2
10:17 15.9 °C 10.6 °C 1011.2 hPa East 1.4 km/h 3.2 km/h 71% 0.0 mm 47 W/m2
10:22 16.2 °C 10.7 °C 1011.2 hPa NE 1.4 km/h 3.2 km/h 70% 0.0 mm 49 W/m2
10:27 16.4 °C 10.7 °C 1011.2 hPa NNE 1.4 km/h 4.8 km/h 69% 0.0 mm 51 W/m2
10:32 16.4 °C 10.9 °C 1011.2 hPa WNW 1.4 km/h 3.2 km/h 70% 0.0 mm 51 W/m2
10:37 16.5 °C 10.6 °C 1011.2 hPa Calm   3.2 km/h 68% 0.0 mm 53 W/m2
10:42 16.6 °C 10.9 °C 1011.2 hPa North 1.4 km/h 3.2 km/h 69% 0.0 mm 53 W/m2
10:48 16.7 °C 11 °C 1010.8 hPa Calm   3.2 km/h 69% 0.0 mm 54 W/m2
10:53 16.9 °C 11.2 °C 1010.8 hPa Calm   3.2 km/h 69% 0.0 mm 54 W/m2
10:58 17.3 °C 11.3 °C 1010.8 hPa ESE 1.4 km/h 1.6 km/h 68% 0.0 mm 56 W/m2
11:03 17.6 °C 11.4 °C 1010.8 hPa ENE 1.4 km/h 4.8 km/h 67% 0.0 mm 58 W/m2
11:08 17.8 °C 11.6 °C 1010.8 hPa East 1.4 km/h 4.8 km/h 67% 0.0 mm 58 W/m2
11:13 18 °C 11.6 °C 1010.8 hPa NNE 4.7 km/h 6.4 km/h 66% 0.0 mm 62 W/m2
11:18 18.2 °C 12 °C 1010.8 hPa Calm   4.8 km/h 67% 0.0 mm 63 W/m2
11:23 18.6 °C 11.9 °C 1010.8 hPa Calm   6.4 km/h 65% 0.0 mm 67 W/m2
11:28 18.9 °C 11.9 °C 1010.8 hPa ENE 1.4 km/h 3.2 km/h 64% 0.0 mm 69 W/m2
11:33 19.2 °C 12.2 °C 1010.8 hPa Calm   1.6 km/h 64% 0.0 mm 74 W/m2
11:38 19.4 °C 12.2 °C 1010.8 hPa NE 1.4 km/h 6.4 km/h 63% 0.0 mm 255 W/m2
11:43 19.6 °C 12.4 °C 1010.8 hPa NE 3.2 km/h 3.2 km/h 63% 0.0 mm 485 W/m2
11:48 20.1 °C 12.6 °C 1010.5 hPa ENE 3.2 km/h 6.4 km/h 62% 0.0 mm 517 W/m2
11:53 20.4 °C 12.6 °C 1010.5 hPa ENE 1.4 km/h 4.8 km/h 61% 0.0 mm 526 W/m2
11:58 20.6 °C 12.6 °C 1010.5 hPa ESE 6.4 km/h 6.4 km/h 60% 0.0 mm 533 W/m2
12:03 20.8 °C 12.5 °C 1010.5 hPa NNW 3.2 km/h 4.8 km/h 59% 0.0 mm 540 W/m2
12:08 20.9 °C 12.8 °C 1010.5 hPa Calm   6.4 km/h 60% 0.0 mm 550 W/m2
12:13 21.2 °C 12.9 °C 1010.5 hPa NE 1.4 km/h 6.4 km/h 59% 0.0 mm 559 W/m2
12:18 21.6 °C 13 °C 1010.2 hPa NE 3.2 km/h 6.4 km/h 58% 0.0 mm 564 W/m2
12:23 21.9 °C 13.3 °C 1010.2 hPa NE 3.2 km/h 4.8 km/h 58% 0.0 mm 571 W/m2
12:28 22.2 °C 13.3 °C 1010.2 hPa East 4.7 km/h 8 km/h 57% 0.0 mm 577 W/m2
12:33 22.6 °C 13.6 °C 1010.2 hPa NE 3.2 km/h 6.4 km/h 57% 0.0 mm 589 W/m2
12:38 22.8 °C 13.6 °C 1010.2 hPa ENE 4.7 km/h 12.9 km/h 56% 0.0 mm 596 W/m2
12:43 22.9 °C 13.7 °C 1010.2 hPa SW 1.4 km/h 4.8 km/h 56% 0.0 mm 601 W/m2
12:48 23.1 °C 13.8 °C 1010.2 hPa SE 3.2 km/h 9.7 km/h 56% 0.0 mm 601 W/m2
12:53 23.4 °C 13.8 °C 1010.2 hPa NE 1.4 km/h 4.8 km/h 55% 0.0 mm 608 W/m2
12:58 23.4 °C 13.8 °C 1010.2 hPa ENE 6.4 km/h 8 km/h 55% 0.0 mm 610 W/m2
13:03 23.3 °C 13.8 °C 1009.8 hPa ENE 4.7 km/h 6.4 km/h 55% 0.0 mm 615 W/m2
13:08 23.6 °C 14 °C 1009.8 hPa East 3.2 km/h 6.4 km/h 55% 0.0 mm 617 W/m2
13:13 23.8 °C 14.2 °C 1009.8 hPa NW 1.4 km/h 9.7 km/h 55% 0.0 mm 613 W/m2
13:18 23.9 °C 14.3 °C 1009.5 hPa North 1.4 km/h 6.4 km/h 55% 0.0 mm 617 W/m2
13:23 24.1 °C 14.8 °C 1009.5 hPa NE 3.2 km/h 6.4 km/h 56% 0.0 mm 631 W/m2
13:28 24.5 °C 14.9 °C 1009.5 hPa NE 3.2 km/h 6.4 km/h 55% 0.0 mm 636 W/m2
13:33 24.9 °C 15 °C 1009.5 hPa Calm   4.8 km/h 54% 0.0 mm 636 W/m2
13:38 25.2 °C 14.9 °C 1009.5 hPa NW 3.2 km/h 3.2 km/h 53% 0.0 mm 636 W/m2
13:43 25.4 °C 15.4 °C 1009.1 hPa ENE 1.4 km/h 3.2 km/h 54% 0.0 mm 635 W/m2
13:48 25.4 °C 15.1 °C 1009.1 hPa NNE 3.2 km/h 8 km/h 53% 0.0 mm 645 W/m2
13:53 25.2 °C 14.9 °C 1009.5 hPa NNW 6.4 km/h 9.7 km/h 53% 0.0 mm 631 W/m2
13:58 25.2 °C 14 °C 1009.5 hPa NE 3.2 km/h 3.2 km/h 50% 0.0 mm 642 W/m2
14:03 25.2 °C 14.3 °C 1009.1 hPa SSW 8 km/h 8 km/h 51% 0.0 mm 622 W/m2
14:08 25.2 °C 12.8 °C 1009.1 hPa West 9.7 km/h 9.7 km/h 46% 0.0 mm 628 W/m2
14:13 25.2 °C 12.4 °C 1009.1 hPa WNW 1.4 km/h 6.4 km/h 45% 0.0 mm 629 W/m2
14:18 25.3 °C 11.8 °C 1009.1 hPa ENE 1.4 km/h 8 km/h 43% 0.0 mm 631 W/m2
14:23 25.4 °C 11.2 °C 1009.1 hPa Calm   4.8 km/h 41% 0.0 mm 621 W/m2
14:28 25.5 °C 10.9 °C 1009.1 hPa Calm   8 km/h 40% 0.0 mm 619 W/m2
14:33 25.8 °C 10.4 °C 1009.1 hPa NW 1.4 km/h 3.2 km/h 38% 0.0 mm 621 W/m2
14:38 26.1 °C 9.9 °C 1009.1 hPa NW 3.2 km/h 8 km/h 36% 0.0 mm 612 W/m2
14:43 26 °C 9.8 °C 1008.8 hPa NW 6.4 km/h 6.4 km/h 36% 0.0 mm 605 W/m2
14:48 26 °C 8.9 °C 1009.1 hPa WNW 3.2 km/h 12.9 km/h 34% 0.0 mm 601 W/m2
14:53 25.9 °C 8.8 °C 1009.1 hPa West 6.4 km/h 8 km/h 34% 0.0 mm 596 W/m2
14:58 25.9 °C 9.3 °C 1008.8 hPa SW 4.7 km/h 6.4 km/h 35% 0.0 mm 591 W/m2
15:03 26 °C 8.9 °C 1008.8 hPa West 6.4 km/h 14.5 km/h 34% 0.0 mm 587 W/m2
15:08 25.9 °C 8.8 °C 1008.8 hPa Calm   4.8 km/h 34% 0.0 mm 584 W/m2
15:13 26.2 °C 9.5 °C 1008.8 hPa East 6.4 km/h 14.5 km/h 35% 0.0 mm 578 W/m2
15:18 26.4 °C 9.3 °C 1008.5 hPa West 14.3 km/h 14.5 km/h 34% 0.0 mm 570 W/m2
15:23 26.2 °C 9.5 °C 1008.5 hPa ENE 3.2 km/h 4.8 km/h 35% 0.0 mm 563 W/m2
15:28 26.4 °C 9.7 °C 1008.5 hPa West 11.1 km/h 14.5 km/h 35% 0.0 mm 559 W/m2
15:33 26.4 °C 9.3 °C 1008.5 hPa West 4.7 km/h 9.7 km/h 34% 0.0 mm 555 W/m2
15:38 26.4 °C 9.3 °C 1008.5 hPa West 4.7 km/h 12.9 km/h 34% 0.0 mm 547 W/m2
15:43 26.4 °C 9.7 °C 1008.5 hPa ESE 11.1 km/h 11.3 km/h 35% 0.0 mm 538 W/m2
15:48 26.3 °C 9.6 °C 1008.5 hPa West 4.7 km/h 6.4 km/h 35% 0.0 mm 529 W/m2
15:53 26.4 °C 10.1 °C 1008.5 hPa ENE 1.4 km/h 4.8 km/h 36% 0.0 mm 517 W/m2
15:58 26.7 °C 10 °C 1008.1 hPa SE 3.2 km/h 4.8 km/h 35% 0.0 mm 504 W/m2
16:03 27 °C 10.7 °C 1008.1 hPa WNW 1.4 km/h 3.2 km/h 36% 0.0 mm 492 W/m2
16:08 27.1 °C 9.9 °C 1008.1 hPa WNW 4.7 km/h 8 km/h 34% 0.0 mm 485 W/m2
16:13 27 °C 9.8 °C 1008.1 hPa West 6.4 km/h 11.3 km/h 34% 0.0 mm 469 W/m2
16:18 26.8 °C 10.1 °C 1008.1 hPa Calm   4.8 km/h 35% 0.0 mm 461 W/m2
16:23 26.8 °C 10.1 °C 1008.1 hPa WNW 3.2 km/h 11.3 km/h 35% 0.0 mm 457 W/m2
16:28 26.8 °C 10.1 °C 1008.1 hPa WSW 4.7 km/h 4.8 km/h 35% 0.0 mm 448 W/m2
16:33 26.7 °C 9.5 °C 1007.8 hPa WNW 6.4 km/h 11.3 km/h 34% 0.0 mm 431 W/m2
16:38 26.8 °C 9.2 °C 1007.8 hPa NW 6.4 km/h 11.3 km/h 33% 0.0 mm 422 W/m2
16:43 26.8 °C 9.2 °C 1007.8 hPa WNW 4.7 km/h 12.9 km/h 33% 0.0 mm 406 W/m2
16:48 26.8 °C 8.7 °C 1007.5 hPa NW 6.4 km/h 11.3 km/h 32% 0.0 mm 359 W/m2
16:53 26.8 °C 9.2 °C 1007.5 hPa WNW 4.7 km/h 12.9 km/h 33% 0.0 mm 357 W/m2
16:58 26.9 °C 8.8 °C 1007.5 hPa SW 4.7 km/h 11.3 km/h 32% 0.0 mm 366 W/m2
17:03 26.9 °C 8.8 °C 1007.5 hPa West 3.2 km/h 6.4 km/h 32% 0.0 mm 352 W/m2
17:08 26.9 °C 8.8 °C 1007.5 hPa West 3.2 km/h 8 km/h 32% 0.0 mm 338 W/m2
17:13 26.9 °C 8.8 °C 1007.5 hPa West 4.7 km/h 16.1 km/h 32% 0.0 mm 329 W/m2
17:19 26.6 °C 9 °C 1007.1 hPa Calm   4.8 km/h 33% 0.0 mm 309 W/m2
17:24 26.6 °C 9.4 °C 1007.1 hPa West 9.7 km/h 16.1 km/h 34% 0.0 mm 302 W/m2
17:29 26.6 °C 9.4 °C 1007.1 hPa Calm   6.4 km/h 34% 0.0 mm 285 W/m2
17:34 26.6 °C 9.4 °C 1006.8 hPa NW 1.4 km/h 12.9 km/h 34% 0.0 mm 276 W/m2
17:39 26.7 °C 10 °C 1006.8 hPa West 3.2 km/h 4.8 km/h 35% 0.0 mm 255 W/m2
17:44 26.7 °C 9.5 °C 1006.8 hPa WNW 4.7 km/h 6.4 km/h 34% 0.0 mm 246 W/m2
17:49 26.6 °C 9.4 °C 1006.8 hPa WNW 4.7 km/h 8 km/h 34% 0.0 mm 234 W/m2
17:54 26.4 °C 9.3 °C 1006.8 hPa WNW 6.4 km/h 8 km/h 34% 0.0 mm 214 W/m2
17:59 26.4 °C 9.7 °C 1006.8 hPa WNW 4.7 km/h 4.8 km/h 35% 0.0 mm 197 W/m2
18:04 26.3 °C 9.6 °C 1006.8 hPa West 1.4 km/h 9.7 km/h 35% 0.0 mm 74 W/m2
18:09 26.1 °C 9.9 °C 1006.4 hPa WSW 1.4 km/h 4.8 km/h 36% 0.0 mm 167 W/m2
18:14 26.1 °C 9.9 °C 1006.4 hPa WSW 1.4 km/h 8 km/h 36% 0.0 mm 155 W/m2
18:19 25.9 °C 9.7 °C 1006.4 hPa SW 1.4 km/h 4.8 km/h 36% 0.0 mm 144 W/m2
18:24 25.9 °C 10.1 °C 1006.4 hPa SW 3.2 km/h 3.2 km/h 37% 0.0 mm 132 W/m2
18:29 25.7 °C 9.9 °C 1006.8 hPa WNW 1.4 km/h 4.8 km/h 37% 0.0 mm 49 W/m2
18:34 25.3 °C 10.3 °C 1006.8 hPa Calm     39% 0.0 mm 44 W/m2
18:39 25 °C 10.1 °C 1006.8 hPa WNW 3.2 km/h 4.8 km/h 39% 0.0 mm 35 W/m2
18:44 24.7 °C 9.8 °C 1006.8 hPa WNW 1.4 km/h 6.4 km/h 39% 0.0 mm 33 W/m2
18:49 24.4 °C 10.3 °C 1006.4 hPa WNW 1.4 km/h 3.2 km/h 41% 0.0 mm 28 W/m2
18:54 24.1 °C 9.7 °C 1006.4 hPa West 1.4 km/h 6.4 km/h 40% 0.0 mm 25 W/m2
18:59 23.8 °C 9.8 °C 1006.4 hPa WSW 1.4 km/h 4.8 km/h 41% 0.0 mm 21 W/m2
19:04 23.5 °C 9.5 °C 1006.4 hPa WSW 1.4 km/h 4.8 km/h 41% 0.0 mm 16 W/m2
19:09 23.3 °C 10 °C 1006.4 hPa SW 1.4 km/h 3.2 km/h 43% 0.0 mm 16 W/m2
19:14 23.1 °C 9.5 °C 1006.8 hPa WSW 1.4 km/h 4.8 km/h 42% 0.0 mm 14 W/m2
19:19 22.8 °C 9.6 °C 1006.4 hPa West 4.7 km/h 4.8 km/h 43% 0.0 mm 12 W/m2
19:24 22.7 °C 9.5 °C 1006.4 hPa West 1.4 km/h 4.8 km/h 43% 0.0 mm 9 W/m2
19:29 22.6 °C 9 °C 1006.4 hPa WSW 6.4 km/h 6.4 km/h 42% 0.0 mm 7 W/m2
19:34 22.6 °C 9 °C 1006.4 hPa WSW 6.4 km/h 6.4 km/h 42% 0.0 mm 5 W/m2
19:39 22.6 °C 9 °C 1006.4 hPa WSW 1.4 km/h 6.4 km/h 42% 0.0 mm 0 W/m2
19:44 22.6 °C 9 °C 1006.4 hPa WSW 4.7 km/h 6.4 km/h 42% 0.0 mm 0 W/m2
19:49 22.5 °C 8.6 °C 1006.4 hPa WSW 1.4 km/h 4.8 km/h 41% 0.0 mm 0 W/m2
19:54 22.4 °C 8.9 °C 1006.4 hPa West 4.7 km/h 8 km/h 42% 0.0 mm 0 W/m2
19:59 22.3 °C 9.1 °C 1006.8 hPa WNW 1.4 km/h 6.4 km/h 43% 0.0 mm 0 W/m2
20:04 22.2 °C 8.7 °C 1006.4 hPa West 1.4 km/h 8 km/h 42% 0.0 mm 0 W/m2
20:09 22 °C 9.5 °C 1006.4 hPa West 1.4 km/h 3.2 km/h 45% 0.0 mm 0 W/m2
20:14 21.7 °C 9.6 °C 1006.8 hPa Calm   3.2 km/h 46% 0.0 mm 0 W/m2
20:19 21.4 °C 9.6 °C 1006.4 hPa WNW 1.4 km/h 3.2 km/h 47% 0.0 mm 0 W/m2
20:24 21.1 °C 9.7 °C 1006.8 hPa WNW 1.4 km/h 3.2 km/h 48% 0.0 mm 0 W/m2
20:29 20.9 °C 9.2 °C 1006.4 hPa West 1.4 km/h 3.2 km/h 47% 0.0 mm 0 W/m2
20:34 20.8 °C 8.8 °C 1006.8 hPa West 3.2 km/h 4.8 km/h 46% 0.0 mm 0 W/m2
20:39 20.8 °C 8.4 °C 1006.8 hPa West 3.2 km/h 4.8 km/h 45% 0.0 mm 0 W/m2
20:44 20.9 °C 8.5 °C 1006.8 hPa WSW 4.7 km/h 6.4 km/h 45% 0.0 mm 0 W/m2
20:49 21.3 °C 7.9 °C 1006.8 hPa West 3.2 km/h 6.4 km/h 42% 0.0 mm 0 W/m2
20:54 21.6 °C 8.1 °C 1006.8 hPa WNW 3.2 km/h 6.4 km/h 42% 0.0 mm 0 W/m2
20:59 21.8 °C 8.3 °C 1006.8 hPa West 3.2 km/h 3.2 km/h 42% 0.0 mm 0 W/m2
21:04 21.9 °C 7.7 °C 1006.8 hPa WNW 1.4 km/h 9.7 km/h 40% 0.0 mm 0 W/m2
21:09 22.1 °C 7.9 °C 1006.8 hPa West 4.7 km/h 9.7 km/h 40% 0.0 mm 0 W/m2
21:14 22.2 °C 8 °C 1006.8 hPa WSW 4.7 km/h 14.5 km/h 40% 0.0 mm 0 W/m2
21:19 22.2 °C 8 °C 1006.8 hPa West 11.1 km/h 11.3 km/h 40% 0.0 mm 0 W/m2
21:24 22.2 °C 8 °C 1006.8 hPa West 11.1 km/h 11.3 km/h 40% 0.0 mm 0 W/m2
21:29 22.2 °C 8 °C 1006.8 hPa WNW 3.2 km/h 16.1 km/h 40% 0.0 mm 0 W/m2
21:34 22.1 °C 7.9 °C 1006.8 hPa West 3.2 km/h 9.7 km/h 40% 0.0 mm 0 W/m2
21:39 22.1 °C 8.2 °C 1006.8 hPa West 4.7 km/h 16.1 km/h 41% 0.0 mm 0 W/m2
21:44 21.9 °C 8.1 °C 1006.8 hPa WNW 6.4 km/h 9.7 km/h 41% 0.0 mm 0 W/m2
21:49 21.8 °C 8 °C 1007.1 hPa West 6.4 km/h 11.3 km/h 41% 0.0 mm 0 W/m2
21:54 21.7 °C 7.9 °C 1007.1 hPa West 6.4 km/h 9.7 km/h 41% 0.0 mm 0 W/m2
21:59 21.6 °C 7.8 °C 1007.1 hPa WNW 6.4 km/h 9.7 km/h 41% 0.0 mm 0 W/m2
22:04 21.5 °C 8 °C 1007.1 hPa WNW 9.7 km/h 12.9 km/h 42% 0.0 mm 0 W/m2
22:09 21.4 °C 8 °C 1007.1 hPa West 6.4 km/h 11.3 km/h 42% 0.0 mm 0 W/m2
22:14 21.3 °C 7.9 °C 1007.1 hPa NW 1.4 km/h 12.9 km/h 42% 0.0 mm 0 W/m2
22:19 21.3 °C 7.9 °C 1007.1 hPa West 4.7 km/h 12.9 km/h 42% 0.0 mm 0 W/m2
22:24 21.3 °C 7.5 °C 1006.8 hPa WSW 3.2 km/h 6.4 km/h 41% 0.0 mm 0 W/m2
22:29 21.2 °C 7.4 °C 1006.8 hPa West 6.4 km/h 12.9 km/h 41% 0.0 mm 0 W/m2
22:34 21.2 °C 7.4 °C 1006.8 hPa West 3.2 km/h 6.4 km/h 41% 0.0 mm 0 W/m2
22:39 21.2 °C 7.4 °C 1006.8 hPa WNW 3.2 km/h 9.7 km/h 41% 0.0 mm 0 W/m2
22:44 21.2 °C 7.4 °C 1006.8 hPa WSW 3.2 km/h 6.4 km/h 41% 0.0 mm 0 W/m2
22:49 21.2 °C 7.8 °C 1006.8 hPa NW 1.4 km/h 4.8 km/h 42% 0.0 mm 0 W/m2
22:54 21.1 °C 7.7 °C 1006.8 hPa WSW 3.2 km/h 9.7 km/h 42% 0.0 mm 0 W/m2
22:59 20.9 °C 7.5 °C 1006.8 hPa Calm   6.4 km/h 42% 0.0 mm 0 W/m2
23:04 20.9 °C 7.5 °C 1006.8 hPa NW 1.4 km/h 9.7 km/h 42% 0.0 mm 0 W/m2
23:09 20.8 °C 7.8 °C 1006.8 hPa Calm   1.6 km/h 43% 0.0 mm 0 W/m2
23:14 20.6 °C 7.6 °C 1006.8 hPa Calm   4.8 km/h 43% 0.0 mm 0 W/m2
23:19 20.4 °C 7.4 °C 1006.8 hPa SW 1.4 km/h 4.8 km/h 43% 0.0 mm 0 W/m2
23:24 20.3 °C 7.3 °C 1006.8 hPa West 3.2 km/h 4.8 km/h 43% 0.0 mm 0 W/m2
23:29 20.2 °C 7.2 °C 1006.8 hPa West 4.7 km/h 4.8 km/h 43% 0.0 mm 0 W/m2
23:34 20.2 °C 7.6 °C 1006.8 hPa WNW 1.4 km/h 1.6 km/h 44% 0.0 mm 0 W/m2
23:39 20.1 °C 7.1 °C 1006.8 hPa West 3.2 km/h 6.4 km/h 43% 0.0 mm 0 W/m2
23:44 20.1 °C 7.1 °C 1007.1 hPa WSW 4.7 km/h 4.8 km/h 43% 0.0 mm 0 W/m2
23:49 20.1 °C 7.5 °C 1007.1 hPa West 1.4 km/h 3.2 km/h 44% 0.0 mm 0 W/m2
23:54 20.1 °C 7.1 °C 1006.8 hPa West 1.4 km/h 11.3 km/h 43% 0.0 mm 0 W/m2
23:59 20.1 °C 7.1 °C 1006.8 hPa WNW 4.7 km/h 9.7 km/h 43% 0.0 mm 0 W/m2
Juneau County Weather
Compliments of Weather Underground - 4 mb